AirNav   Phillips 66 Aviation Fuel
 
 891 users online  

01IN Community Hospital Heliport
Anderson, Indiana, USA

GOING TO ANDERSON?


FAA INFORMATION EFFECTIVE 20 JULY 2017

Location

FAA Identifier: 01IN
Lat/Long: 40-07-59.3500N / 085-41-39.9200W
40-07.989167N / 085-41.665333W
40.1331528 / -85.6944222
(estimated)
Elevation: 890 ft. / 271 m (estimated)
Variation: 03W (1985)
From city: HELIPORT LCTD WITHIN CITY LIMITS.
Time zone: UTC -4 (UTC -5 during Standard Time)
Zip code: 46011

Heliport Operations

Heliport use: Private use, MEDICAL USE.
Activation date: 09/1972
Control tower: no
ARTCC: INDIANAPOLIS CENTER
FSS: TERRE HAUTE FLIGHT SERVICE STATION
Attendance: UNATNDD
Wind indicator: yes
Segmented circle: yes

Heliport Communications

WX AWOS-3 at AID (4 nm E): 128.55 (765-378-1510)
WX ASOS at MIE (15 nm NE): 114.4 (765-288-9617)
WX AWOS-3 at MQJ (20 nm SW): 124.175 (317-335-3037)

Nearby radio navigation aids

VOR radial/distance  VOR name  Freq  Var
MIEr249/15.1MUNCIE VOR/DME114.4003W
MZZr185/21.6MARION VOR/DME108.6003W
OKKr150/28.9KOKOMO VORTAC113.5005W
SHBr010/30.6SHELBYVILLE VOR/DME112.0001E
VHPr057/36.4BRICKYARD VORTAC116.3001E
GUSr148/37.1GRISSOM VORTAC108.4502W

 
NDB name  Hdg/Dist  Freq  Var  ID
VIDEO297/9.339403WAI .- ..
METROPOLITAN057/20.133803WUMP ..- -- .--.
NEW CASTLE313/23.038502WUWL ..- .-- .-..

Heliport Services

Airframe service: NONE
Powerplant service: NONE

Runway Information

Helipad H1

Dimensions: 45 x 45 ft. / 14 x 14 m
Surface: asphalt
Latitude: 40-07.989167N
Longitude: 085-41.665333W
Elevation: 890.0 ft.
Traffic pattern: leftleft

Heliport Ownership and Management from official FAA records

Ownership: Privately-owned
Owner: COMMUNITY HOSPITAL
1515 N MADISON AVENUE
ANDERSON, IN 46011
Phone 765-298-5125
Manager: BILL VANNESS, CEO
1515 N MADISON AVENUE
ANDERSON, IN 46011
Phone 765-298-5125
ROB HAYES 765-298-5617.

Instrument Procedures

There are no published instrument procedures at 01IN.

Some nearby airports with instrument procedures:

KAID - Anderson Municipal Airport-Darlington Field (4 nm E)
KMIE - Delaware County Regional Airport (15 nm NE)
KMQJ - Indianapolis Regional Airport (20 nm SW)
KUMP - Indianapolis Metropolitan Airport (20 nm SW)
KMZZ - Marion Municipal Airport (21 nm N)
 
Loc | Ops | Rwys | IFR | FBO | Links
Com | Nav | Svcs | Stats | Notes

City of Findlay
 
Area around 01IN (Community Hospital Heliport)
 
Road maps at: MapQuest Bing Google
 
Aerial photo
No photo
 
Sectional chart

 
Airport distance calculator
Flying to Community Hospital Heliport? Find the distance to fly.

From to 01IN

Sunrise and sunset
Times for 21-Jul-2017
 Local
(UTC-4)
 Zulu
(UTC)
Morning civil twilight06:0110:01
Sunrise06:3210:32
Sunset21:0601:06
Evening civil twilight21:3801:38

Current date and time
Zulu (UTC)  22-Jul-2017 01:24:40
Local (UTC-4)  21-Jul-2017 21:24:40
 
METAR
KAID 
4nm E 
211947Z 34006KT 10SM SCT030 30/23 A3001
KMIE 
15nm NE 
220053Z 16004KT 10SM CLR 28/23 A2994 RMK AO2 SLP128 T02780228
KMQJ 
20nm SW 
220048Z AUTO 00000KT 10SM CLR 27/24 A2994 RMK AO1
TAF
KGUS 
37nm NW 
211900Z 2119/2301 18009KT 9999 SCT020 SCT035 BKN160 QNH2980INS BECMG 2208/2209 21009KT 9999 FEW040 SCT080 BKN150 510154 QNH2975INS BECMG 2214/2215 24012G18KT 9999 VCTS FEW030 BKN060CB OVC100 QNH2972INS BECMG 2216/2217 24015G25KT 9999 NSW FEW050 BKN120 510153 QNH2970INS BECMG 2223/2224 29035G45KT 3200 +TSRA OVC040CB QNH2970INS TX31/2121Z TN23/2212Z
KIND 
37nm SW 
212011Z 2120/2224 22006KT P6SM SCT050 BKN070 FM220500 19004KT P6SM VCTS SCT050CB BKN120 FM221500 23008KT P6SM FEW050 SCT200
NOTAMs
Click for the latest NOTAMs
NOTAMs are issued by the DoD/FAA and will open in a separate window not controlled by AirNav.

 

 
 

Would you like to see your business listed on this page?

 If your business provides an interesting product or service to pilots, flight crews, aircraft, or users of the Community Hospital Heliport, you should consider listing it here.  To start the listing process, click on the button below
 
Add a business
 

Other Pages about Community Hospital Heliport

Update a link
 
Copyright © AirNav, LLC. All rights reserved. Privacy Policy  Contact